Alexander 3 — SW6137 — position and weather

sailwx.info

Track history (hours):
 
Tides and Currents Weather Stations Pressure Air Temp Water Temp Dewpoint Dewpoint Depression Visibility Wind Speed Wind Dir Waves Ship Positions

Alexander 3

Last reported at 2015-Jul-31 08:33 UTC. Time now 2015-Aug-03 17:10 UTC.
Position N 36°14' E 023°06'.

Length 38 m; draft 5.6 m.

Type: Tug. MMSI: 240733000.

Date/timePositionNaut miles runAvg speedWind from/ knotsBaromVisibWave heightAir tempDewpointWater temp
2015-Jul-31 08:33N 36°14' E 023°06'0 0.0
2015-Jul-31 03:30N 36°14' E 023°06'1 1.1
2015-Jul-31 02:33N 36°15' E 023°07'5410.1
2015-Jul-30 21:11N 37°06' E 023°30'710.5
2015-Jul-30 20:33N 37°13' E 023°33'10 9.9
2015-Jul-30 19:33N 37°22' E 023°37'10 9.7
2015-Jul-30 18:33N 37°31' E 023°36'9 9.4
2015-Jul-30 17:33N 37°41' E 023°36'10 9.8
2015-Jul-30 16:33N 37°51' E 023°36'7 6.8
2015-Jul-30 15:33N 37°57' E 023°36'0 0.2
2015-Jul-30 14:33N 37°57' E 023°36'1 0.6
2015-Jul-30 13:33N 37°57' E 023°37'1 1.5
2015-Jul-30 12:33N 37°56' E 023°37'0 0.0
2015-Jul-30 11:33N 37°56' E 023°37'0 0.0
2015-Jul-30 10:33N 37°56' E 023°37'0 0.0
2015-Jul-30 09:33N 37°56' E 023°37'0 0.0
2015-Jul-30 08:33N 37°56' E 023°37'0 0.0
2015-Jul-30 07:33N 37°56' E 023°37'1 1.5
2015-Jul-30 06:33N 37°57' E 023°37'1 1.1
2015-Jul-30 05:33N 37°57' E 023°35'0 0.4
2015-Jul-30 04:33N 37°57' E 023°36'1 0.8
2015-Jul-30 03:33N 37°57' E 023°37'0 0.0
2015-Jul-30 02:33N 37°57' E 023°37'0 0.0
2015-Jul-29 09:32N 37°57' E 023°37'0 0.0
2015-Jul-29 08:33N 37°57' E 023°37'0 0.0
2015-Jul-29 07:33N 37°57' E 023°37'0 0.0
2015-Jul-29 06:33N 37°57' E 023°37'0 0.0
2015-Jul-29 05:33N 37°57' E 023°37'0 0.0
2015-Jul-29 04:33N 37°57' E 023°37'0 0.0
2015-Jul-29 03:33N 37°57' E 023°37'0 0.0
2015-Jul-29 02:33N 37°57' E 023°37'0 0.0
2015-Jul-29 01:33N 37°57' E 023°37'0 0.0
2015-Jul-29 00:33N 37°57' E 023°37'0 0.0
2015-Jul-28 23:33N 37°57' E 023°37'0 0.1
2015-Jul-28 22:33N 37°57' E 023°36'2 1.8
2015-Jul-28 21:33N 37°56' E 023°36'1 1.3
2015-Jul-28 20:33N 37°57' E 023°35'1 1.1
2015-Jul-28 19:33N 37°57' E 023°37'0 0.0
2015-Jul-28 18:33N 37°57' E 023°37'1 0.8
2015-Jul-28 17:33N 37°57' E 023°36'1 1.3
2015-Jul-28 16:33N 37°56' E 023°37'0 0.0
2015-Jul-28 15:33N 37°56' E 023°37'0 0.0
2015-Jul-28 14:33N 37°56' E 023°37'0 0.5
2015-Jul-28 13:33N 37°56' E 023°38'0 0.5
2015-Jul-28 12:33N 37°56' E 023°37'0 0.0
2015-Jul-28 11:33N 37°56' E 023°37'0 0.0
2015-Jul-28 10:33N 37°56' E 023°37'0 0.0
2015-Jul-28 09:33N 37°56' E 023°37'2 1.5
2015-Jul-28 08:33N 37°57' E 023°37'0 0.0
2015-Jul-28 07:33N 37°57' E 023°37'0 0.0
2015-Jul-28 06:33N 37°57' E 023°37'0 0.0
2015-Jul-28 05:33N 37°57' E 023°37'1 1.2
2015-Jul-28 04:33N 37°57' E 023°35'0 0.2
2015-Jul-28 03:33N 37°57' E 023°35'2 0.1
2015-Jul-27 10:33N 37°56' E 023°37'0 0.0
2015-Jul-27 09:33N 37°56' E 023°37'0 0.0
2015-Jul-27 08:33N 37°56' E 023°37'0 0.0
2015-Jul-27 07:33N 37°56' E 023°37'0 0.0
2015-Jul-27 06:33N 37°56' E 023°37'1 0.8
2015-Jul-27 05:32N 37°56' E 023°38'2 2.5
2015-Jul-27 04:33N 37°57' E 023°35'2 2.0
2015-Jul-27 03:33N 37°56' E 023°37'1 0.0
2015-Jul-26 10:33N 37°56' E 023°38'1 0.7
2015-Jul-26 09:33N 37°56' E 023°37'0 0.0
2015-Jul-26 08:33N 37°56' E 023°37'0 0.0
2015-Jul-26 07:33N 37°56' E 023°37'0 0.1
2015-Jul-26 06:33N 37°56' E 023°37'1 1.4
2015-Jul-26 05:33N 37°57' E 023°36'1 0.7
2015-Jul-26 04:33N 37°57' E 023°35'0 0.3
2015-Jul-26 03:33N 37°57' E 023°35'2 0.0
2015-Jul-24 06:33N 37°56' E 023°37'1 0.1
2015-Jul-23 18:33N 37°57' E 023°38'4 4.5
2015-Jul-23 17:33N 37°52' E 023°39'1010.2
2015-Jul-23 16:33N 37°43' E 023°44'10 9.6
2015-Jul-23 15:33N 37°33' E 023°44'1110.3
2015-Jul-23 14:31N 37°23' E 023°41'1010.3
2015-Jul-23 13:33N 37°13' E 023°37'403 8.9
2015-Jul-21 16:23N 36°01' E 015°23'8 9.6
2015-Jul-21 15:33N 36°00' E 015°13'10 9.5
2015-Jul-21 14:33N 35°59' E 015°01'10 9.5
2015-Jul-21 13:33N 35°58' E 014°49'9 9.4
2015-Jul-21 12:33N 35°56' E 014°38'5 4.7
2015-Jul-21 11:34N 35°55' E 014°33'0 0.4
2015-Jul-21 10:33N 35°55' E 014°33'2 1.8
2015-Jul-21 09:33N 35°57' E 014°34'1 0.8
2015-Jul-21 08:33N 35°57' E 014°35'  
Track history (hours):
 
Tides and Currents Weather Stations Pressure Air Temp Water Temp Dewpoint Dewpoint Depression Visibility Wind Speed Wind Dir Waves Ship Positions

Alexander 3

Last reported at 2015-Jul-31 08:33 UTC. Time now 2015-Aug-03 17:10 UTC.
Position N 36°14' E 023°06'.

Length 38 m; draft 5.6 m.

Type: Tug. MMSI: 240733000.

Date/timePositionNaut miles runAvg speedWind from/ knotsBaromVisibWave heightAir tempDewpointWater temp
2015-Jul-31 08:33N 36°14' E 023°06'0 0.0
2015-Jul-31 03:30N 36°14' E 023°06'1 1.1
2015-Jul-31 02:33N 36°15' E 023°07'5410.1
2015-Jul-30 21:11N 37°06' E 023°30'710.5
2015-Jul-30 20:33N 37°13' E 023°33'10 9.9
2015-Jul-30 19:33N 37°22' E 023°37'10 9.7
2015-Jul-30 18:33N 37°31' E 023°36'9 9.4
2015-Jul-30 17:33N 37°41' E 023°36'10 9.8
2015-Jul-30 16:33N 37°51' E 023°36'7 6.8
2015-Jul-30 15:33N 37°57' E 023°36'0 0.2
2015-Jul-30 14:33N 37°57' E 023°36'1 0.6
2015-Jul-30 13:33N 37°57' E 023°37'1 1.5
2015-Jul-30 12:33N 37°56' E 023°37'0 0.0
2015-Jul-30 11:33N 37°56' E 023°37'0 0.0
2015-Jul-30 10:33N 37°56' E 023°37'0 0.0
2015-Jul-30 09:33N 37°56' E 023°37'0 0.0
2015-Jul-30 08:33N 37°56' E 023°37'0 0.0
2015-Jul-30 07:33N 37°56' E 023°37'1 1.5
2015-Jul-30 06:33N 37°57' E 023°37'1 1.1
2015-Jul-30 05:33N 37°57' E 023°35'0 0.4
2015-Jul-30 04:33N 37°57' E 023°36'1 0.8
2015-Jul-30 03:33N 37°57' E 023°37'0 0.0
2015-Jul-30 02:33N 37°57' E 023°37'0 0.0
2015-Jul-29 09:32N 37°57' E 023°37'0 0.0
2015-Jul-29 08:33N 37°57' E 023°37'0 0.0
2015-Jul-29 07:33N 37°57' E 023°37'0 0.0
2015-Jul-29 06:33N 37°57' E 023°37'0 0.0
2015-Jul-29 05:33N 37°57' E 023°37'0 0.0
2015-Jul-29 04:33N 37°57' E 023°37'0 0.0
2015-Jul-29 03:33N 37°57' E 023°37'0 0.0
2015-Jul-29 02:33N 37°57' E 023°37'0 0.0
2015-Jul-29 01:33N 37°57' E 023°37'0 0.0
2015-Jul-29 00:33N 37°57' E 023°37'0 0.0
2015-Jul-28 23:33N 37°57' E 023°37'0 0.1
2015-Jul-28 22:33N 37°57' E 023°36'2 1.8
2015-Jul-28 21:33N 37°56' E 023°36'1 1.3
2015-Jul-28 20:33N 37°57' E 023°35'1 1.1
2015-Jul-28 19:33N 37°57' E 023°37'0 0.0
2015-Jul-28 18:33N 37°57' E 023°37'1 0.8
2015-Jul-28 17:33N 37°57' E 023°36'1 1.3
2015-Jul-28 16:33N 37°56' E 023°37'0 0.0
2015-Jul-28 15:33N 37°56' E 023°37'0 0.0
2015-Jul-28 14:33N 37°56' E 023°37'0 0.5
2015-Jul-28 13:33N 37°56' E 023°38'0 0.5
2015-Jul-28 12:33N 37°56' E 023°37'0 0.0
2015-Jul-28 11:33N 37°56' E 023°37'0 0.0
2015-Jul-28 10:33N 37°56' E 023°37'0 0.0
2015-Jul-28 09:33N 37°56' E 023°37'2 1.5
2015-Jul-28 08:33N 37°57' E 023°37'0 0.0
2015-Jul-28 07:33N 37°57' E 023°37'0 0.0
2015-Jul-28 06:33N 37°57' E 023°37'0 0.0
2015-Jul-28 05:33N 37°57' E 023°37'1 1.2
2015-Jul-28 04:33N 37°57' E 023°35'0 0.2
2015-Jul-28 03:33N 37°57' E 023°35'2 0.1
2015-Jul-27 10:33N 37°56' E 023°37'0 0.0
2015-Jul-27 09:33N 37°56' E 023°37'0 0.0
2015-Jul-27 08:33N 37°56' E 023°37'0 0.0
2015-Jul-27 07:33N 37°56' E 023°37'0 0.0
2015-Jul-27 06:33N 37°56' E 023°37'1 0.8
2015-Jul-27 05:32N 37°56' E 023°38'2 2.5
2015-Jul-27 04:33N 37°57' E 023°35'2 2.0
2015-Jul-27 03:33N 37°56' E 023°37'1 0.0
2015-Jul-26 10:33N 37°56' E 023°38'1 0.7
2015-Jul-26 09:33N 37°56' E 023°37'0 0.0
2015-Jul-26 08:33N 37°56' E 023°37'0 0.0
2015-Jul-26 07:33N 37°56' E 023°37'0 0.1
2015-Jul-26 06:33N 37°56' E 023°37'1 1.4
2015-Jul-26 05:33N 37°57' E 023°36'1 0.7
2015-Jul-26 04:33N 37°57' E 023°35'0 0.3
2015-Jul-26 03:33N 37°57' E 023°35'2 0.0
2015-Jul-24 06:33N 37°56' E 023°37'1 0.1
2015-Jul-23 18:33N 37°57' E 023°38'4 4.5
2015-Jul-23 17:33N 37°52' E 023°39'1010.2
2015-Jul-23 16:33N 37°43' E 023°44'10 9.6
2015-Jul-23 15:33N 37°33' E 023°44'1110.3
2015-Jul-23 14:31N 37°23' E 023°41'1010.3
2015-Jul-23 13:33N 37°13' E 023°37'403 8.9
2015-Jul-21 16:23N 36°01' E 015°23'8 9.6
2015-Jul-21 15:33N 36°00' E 015°13'10 9.5
2015-Jul-21 14:33N 35°59' E 015°01'10 9.5
2015-Jul-21 13:33N 35°58' E 014°49'9 9.4
2015-Jul-21 12:33N 35°56' E 014°38'5 4.7
2015-Jul-21 11:34N 35°55' E 014°33'0 0.4
2015-Jul-21 10:33N 35°55' E 014°33'2 1.8
2015-Jul-21 09:33N 35°57' E 014°34'1 0.8
2015-Jul-21 08:33N 35°57' E 014°35'  

Dump ship's entire track history